sensor_id;sensor_type;location;lat;lon;timestamp;pressure;altitude;pressure_sealevel;temperature;humidity
37856;BME280;23694;43.274;26.924;2023-02-08T00:01:32;100644.63;;;-2.40;85.27
37856;BME280;23694;43.274;26.924;2023-02-08T00:03:58;100645.56;;;-2.33;84.90
37856;BME280;23694;43.274;26.924;2023-02-08T00:06:24;100643.94;;;-2.24;84.09
37856;BME280;23694;43.274;26.924;2023-02-08T00:08:50;100635.31;;;-2.32;84.15
37856;BME280;23694;43.274;26.924;2023-02-08T00:11:16;100640.47;;;-2.29;84.25
37856;BME280;23694;43.274;26.924;2023-02-08T00:13:42;100639.63;;;-2.29;83.56
37856;BME280;23694;43.274;26.924;2023-02-08T00:16:09;100640.53;;;-2.22;83.52
37856;BME280;23694;43.274;26.924;2023-02-08T00:18:35;100644.81;;;-2.23;83.19
37856;BME280;23694;43.274;26.924;2023-02-08T00:21:09;100649.00;;;-2.31;82.76
37856;BME280;23694;43.274;26.924;2023-02-08T00:23:36;100643.81;;;-2.37;82.89
37856;BME280;23694;43.274;26.924;2023-02-08T00:26:02;100653.31;;;-2.29;82.47
37856;BME280;23694;43.274;26.924;2023-02-08T00:28:29;100659.41;;;-2.17;82.66
37856;BME280;23694;43.274;26.924;2023-02-08T00:30:55;100651.66;;;-2.22;82.41
37856;BME280;23694;43.274;26.924;2023-02-08T00:33:21;100649.88;;;-2.31;82.69
37856;BME280;23694;43.274;26.924;2023-02-08T00:35:47;100654.97;;;-2.32;83.33
37856;BME280;23694;43.274;26.924;2023-02-08T00:38:13;100646.41;;;-2.34;83.43
37856;BME280;23694;43.274;26.924;2023-02-08T00:40:39;100660.16;;;-2.29;83.45
37856;BME280;23694;43.274;26.924;2023-02-08T00:43:06;100653.91;;;-2.51;84.09
37856;BME280;23694;43.274;26.924;2023-02-08T00:45:32;100662.25;;;-2.67;85.38
37856;BME280;23694;43.274;26.924;2023-02-08T00:47:58;100662.25;;;-2.66;84.71
37856;BME280;23694;43.274;26.924;2023-02-08T00:50:24;100670.16;;;-2.52;85.04
37856;BME280;23694;43.274;26.924;2023-02-08T00:52:51;100669.09;;;-2.66;86.49
37856;BME280;23694;43.274;26.924;2023-02-08T00:55:17;100666.75;;;-2.51;85.50
37856;BME280;23694;43.274;26.924;2023-02-08T00:57:43;100670.06;;;-2.58;86.15
37856;BME280;23694;43.274;26.924;2023-02-08T01:00:09;100659.94;;;-2.49;85.78
37856;BME280;23694;43.274;26.924;2023-02-08T01:02:37;100667.56;;;-2.55;85.81
37856;BME280;23694;43.274;26.924;2023-02-08T01:05:04;100659.19;;;-2.37;86.20
37856;BME280;23694;43.274;26.924;2023-02-08T01:07:30;100659.06;;;-2.49;86.01
37856;BME280;23694;43.274;26.924;2023-02-08T01:09:56;100657.34;;;-2.50;86.12
37856;BME280;23694;43.274;26.924;2023-02-08T01:12:22;100654.91;;;-2.38;86.94
37856;BME280;23694;43.274;26.924;2023-02-08T01:14:49;100662.63;;;-2.38;86.38
37856;BME280;23694;43.274;26.924;2023-02-08T01:17:15;100665.13;;;-2.43;86.64
37856;BME280;23694;43.274;26.924;2023-02-08T01:19:41;100669.56;;;-2.28;86.32
37856;BME280;23694;43.274;26.924;2023-02-08T01:22:07;100661.81;;;-2.34;86.94
37856;BME280;23694;43.274;26.924;2023-02-08T01:24:33;100662.56;;;-2.43;86.94
37856;BME280;23694;43.274;26.924;2023-02-08T01:26:59;100656.59;;;-2.42;87.42
37856;BME280;23694;43.274;26.924;2023-02-08T01:29:25;100657.34;;;-2.50;87.95
37856;BME280;23694;43.274;26.924;2023-02-08T01:31:52;100671.09;;;-2.45;87.76
37856;BME280;23694;43.274;26.924;2023-02-08T01:34:18;100670.00;;;-2.61;88.33
37856;BME280;23694;43.274;26.924;2023-02-08T01:36:44;100679.38;;;-2.63;88.86
37856;BME280;23694;43.274;26.924;2023-02-08T01:39:10;100672.47;;;-2.70;90.06
37856;BME280;23694;43.274;26.924;2023-02-08T01:41:39;100685.28;;;-2.70;91.25
37856;BME280;23694;43.274;26.924;2023-02-08T01:46:39;100692.81;;;-2.82;94.26
37856;BME280;23694;43.274;26.924;2023-02-08T01:49:29;100694.28;;;-3.00;95.17
37856;BME280;23694;43.274;26.924;2023-02-08T01:54:29;100696.91;;;-2.97;94.03
37856;BME280;23694;43.274;26.924;2023-02-08T01:56:57;100702.13;;;-2.91;91.80
37856;BME280;23694;43.274;26.924;2023-02-08T01:59:26;100703.91;;;-2.85;91.26
37856;BME280;23694;43.274;26.924;2023-02-08T02:01:56;100703.09;;;-2.81;89.97
37856;BME280;23694;43.274;26.924;2023-02-08T02:04:24;100710.00;;;-2.77;89.00
37856;BME280;23694;43.274;26.924;2023-02-08T02:06:54;100706.56;;;-2.77;89.03
37856;BME280;23694;43.274;26.924;2023-02-08T02:09:32;100710.94;;;-2.70;88.21
37856;BME280;23694;43.274;26.924;2023-02-08T02:12:01;100712.53;;;-2.78;88.12
37856;BME280;23694;43.274;26.924;2023-02-08T02:14:27;100717.44;;;-2.94;87.63
37856;BME280;23694;43.274;26.924;2023-02-08T02:16:54;100725.06;;;-2.98;87.49
37856;BME280;23694;43.274;26.924;2023-02-08T02:40:54;100746.56;;;-2.90;86.01
37856;BME280;23694;43.274;26.924;2023-02-08T02:46:19;100753.25;;;-3.00;83.84
37856;BME280;23694;43.274;26.924;2023-02-08T02:54:10;100772.28;;;-2.85;81.46
37856;BME280;23694;43.274;26.924;2023-02-08T02:56:43;100779.91;;;-2.89;80.18
37856;BME280;23694;43.274;26.924;2023-02-08T02:59:12;100778.22;;;-2.88;79.82
37856;BME280;23694;43.274;26.924;2023-02-08T03:01:41;100777.41;;;-2.85;78.92
37856;BME280;23694;43.274;26.924;2023-02-08T03:04:16;100786.78;;;-2.86;78.08
37856;BME280;23694;43.274;26.924;2023-02-08T03:09:44;100796.66;;;-3.10;78.55
37856;BME280;23694;43.274;26.924;2023-02-08T03:15:05;100804.47;;;-3.04;78.15
37856;BME280;23694;43.274;26.924;2023-02-08T03:20:24;100807.56;;;-3.24;78.65
37856;BME280;23694;43.274;26.924;2023-02-08T03:23:01;100812.56;;;-3.28;78.33
37856;BME280;23694;43.274;26.924;2023-02-08T03:25:47;100809.13;;;-3.30;78.29
37856;BME280;23694;43.274;26.924;2023-02-08T03:34:04;100810.97;;;-3.25;78.83
37856;BME280;23694;43.274;26.924;2023-02-08T03:37:03;100816.81;;;-3.30;77.60
37856;BME280;23694;43.274;26.924;2023-02-08T03:39:33;100822.34;;;-3.56;79.56
37856;BME280;23694;43.274;26.924;2023-02-08T03:42:05;100822.38;;;-3.53;79.15
37856;BME280;23694;43.274;26.924;2023-02-08T03:44:50;100834.19;;;-3.61;79.69
37856;BME280;23694;43.274;26.924;2023-02-08T03:47:23;100824.00;;;-3.58;78.09
37856;BME280;23694;43.274;26.924;2023-02-08T03:49:54;100841.09;;;-3.57;78.82
37856;BME280;23694;43.274;26.924;2023-02-08T03:52:22;100833.34;;;-3.60;77.65
37856;BME280;23694;43.274;26.924;2023-02-08T03:55:02;100837.59;;;-3.62;77.51
37856;BME280;23694;43.274;26.924;2023-02-08T03:57:37;100849.53;;;-3.62;77.50
37856;BME280;23694;43.274;26.924;2023-02-08T04:00:11;100845.41;;;-3.54;77.20
37856;BME280;23694;43.274;26.924;2023-02-08T04:02:54;100852.28;;;-3.52;76.90
37856;BME280;23694;43.274;26.924;2023-02-08T04:05:22;100850.47;;;-3.57;77.09
37856;BME280;23694;43.274;26.924;2023-02-08T04:07:50;100861.69;;;-3.52;77.06
37856;BME280;23694;43.274;26.924;2023-02-08T04:10:16;100860.94;;;-3.46;76.97
37856;BME280;23694;43.274;26.924;2023-02-08T04:12:43;100868.22;;;-3.66;77.36
37856;BME280;23694;43.274;26.924;2023-02-08T04:15:10;100861.53;;;-3.60;77.66
37856;BME280;23694;43.274;26.924;2023-02-08T04:17:36;100868.47;;;-3.54;77.43
37856;BME280;23694;43.274;26.924;2023-02-08T04:20:02;100870.22;;;-3.52;76.79
37856;BME280;23694;43.274;26.924;2023-02-08T04:22:28;100865.03;;;-3.55;76.34
37856;BME280;23694;43.274;26.924;2023-02-08T04:24:54;100877.91;;;-3.52;76.41
37856;BME280;23694;43.274;26.924;2023-02-08T04:27:20;100871.88;;;-3.54;76.01
37856;BME280;23694;43.274;26.924;2023-02-08T04:29:46;100888.63;;;-3.71;75.67
37856;BME280;23694;43.274;26.924;2023-02-08T04:32:12;100884.50;;;-3.64;75.75
37856;BME280;23694;43.274;26.924;2023-02-08T04:34:39;100894.00;;;-3.59;75.44
37856;BME280;23694;43.274;26.924;2023-02-08T04:37:06;100901.69;;;-3.59;75.06
37856;BME280;23694;43.274;26.924;2023-02-08T04:39:32;100898.00;;;-3.71;74.12
37856;BME280;23694;43.274;26.924;2023-02-08T04:41:59;100907.34;;;-3.73;74.86
37856;BME280;23694;43.274;26.924;2023-02-08T04:44:27;100917.72;;;-3.67;74.23
37856;BME280;23694;43.274;26.924;2023-02-08T04:46:55;100928.69;;;-3.73;74.58
37856;BME280;23694;43.274;26.924;2023-02-08T04:49:21;100934.81;;;-3.66;73.75
37856;BME280;23694;43.274;26.924;2023-02-08T04:51:47;100938.13;;;-3.72;73.49
37856;BME280;23694;43.274;26.924;2023-02-08T04:54:14;100946.31;;;-3.88;73.88
37856;BME280;23694;43.274;26.924;2023-02-08T04:56:40;100944.72;;;-3.83;74.35
37856;BME280;23694;43.274;26.924;2023-02-08T04:59:06;100947.28;;;-3.83;74.97
37856;BME280;23694;43.274;26.924;2023-02-08T05:01:32;100954.34;;;-3.71;75.18
37856;BME280;23694;43.274;26.924;2023-02-08T05:03:58;100952.19;;;-3.91;74.46
37856;BME280;23694;43.274;26.924;2023-02-08T05:06:24;100955.94;;;-3.76;73.33
37856;BME280;23694;43.274;26.924;2023-02-08T05:08:50;100956.66;;;-3.84;72.75
37856;BME280;23694;43.274;26.924;2023-02-08T05:11:21;100967.13;;;-4.09;73.63
37856;BME280;23694;43.274;26.924;2023-02-08T05:13:48;100975.03;;;-4.00;74.06
37856;BME280;23694;43.274;26.924;2023-02-08T05:16:15;100964.78;;;-4.00;73.29
37856;BME280;23694;43.274;26.924;2023-02-08T05:18:41;100974.25;;;-3.96;71.86
37856;BME280;23694;43.274;26.924;2023-02-08T05:21:08;100983.88;;;-3.87;71.34
37856;BME280;23694;43.274;26.924;2023-02-08T05:23:35;100982.25;;;-3.84;71.39
37856;BME280;23694;43.274;26.924;2023-02-08T05:26:08;100978.69;;;-3.90;71.32
37856;BME280;23694;43.274;26.924;2023-02-08T05:28:35;100974.28;;;-3.94;70.36
37856;BME280;23694;43.274;26.924;2023-02-08T05:31:22;100986.72;;;-4.11;71.29
37856;BME280;23694;43.274;26.924;2023-02-08T05:33:49;100986.19;;;-3.96;71.27
37856;BME280;23694;43.274;26.924;2023-02-08T05:36:17;100988.22;;;-3.83;71.37
37856;BME280;23694;43.274;26.924;2023-02-08T05:38:43;100991.81;;;-3.75;70.42
37856;BME280;23694;43.274;26.924;2023-02-08T05:41:09;100985.41;;;-3.94;70.86
37856;BME280;23694;43.274;26.924;2023-02-08T05:43:36;100993.69;;;-4.04;71.15
37856;BME280;23694;43.274;26.924;2023-02-08T05:46:02;100986.03;;;-4.04;71.02
37856;BME280;23694;43.274;26.924;2023-02-08T05:48:29;100986.94;;;-4.02;71.79
37856;BME280;23694;43.274;26.924;2023-02-08T05:50:56;100988.63;;;-4.02;72.00
37856;BME280;23694;43.274;26.924;2023-02-08T05:53:22;100986.97;;;-4.00;72.22
37856;BME280;23694;43.274;26.924;2023-02-08T05:55:48;100991.28;;;-3.98;72.36
37856;BME280;23694;43.274;26.924;2023-02-08T05:58:14;100995.72;;;-3.91;72.93
37856;BME280;23694;43.274;26.924;2023-02-08T06:00:41;100995.78;;;-3.89;73.01
37856;BME280;23694;43.274;26.924;2023-02-08T06:03:07;101000.41;;;-3.73;72.94
37856;BME280;23694;43.274;26.924;2023-02-08T06:05:33;101001.03;;;-3.83;72.75
37856;BME280;23694;43.274;26.924;2023-02-08T06:07:59;101000.50;;;-3.68;72.55
37856;BME280;23694;43.274;26.924;2023-02-08T06:10:25;100997.34;;;-3.57;72.41
37856;BME280;23694;43.274;26.924;2023-02-08T06:12:51;101000.56;;;-3.65;72.64
37856;BME280;23694;43.274;26.924;2023-02-08T06:15:18;101015.03;;;-3.67;72.74
37856;BME280;23694;43.274;26.924;2023-02-08T06:17:44;101014.34;;;-3.96;74.28
37856;BME280;23694;43.274;26.924;2023-02-08T06:20:10;101015.28;;;-3.93;74.15
37856;BME280;23694;43.274;26.924;2023-02-08T06:22:39;101021.84;;;-4.04;75.55
37856;BME280;23694;43.274;26.924;2023-02-08T06:25:05;101023.28;;;-4.15;76.24
37856;BME280;23694;43.274;26.924;2023-02-08T06:27:31;101022.53;;;-4.11;75.92
37856;BME280;23694;43.274;26.924;2023-02-08T06:29:57;101020.78;;;-4.13;76.98
37856;BME280;23694;43.274;26.924;2023-02-08T06:32:23;101022.50;;;-4.12;77.14
37856;BME280;23694;43.274;26.924;2023-02-08T06:34:50;101029.56;;;-4.02;77.44
37856;BME280;23694;43.274;26.924;2023-02-08T06:37:17;101022.56;;;-4.09;77.93
37856;BME280;23694;43.274;26.924;2023-02-08T06:39:43;101011.75;;;-3.98;78.10
37856;BME280;23694;43.274;26.924;2023-02-08T06:42:10;101027.94;;;-3.99;77.95
37856;BME280;23694;43.274;26.924;2023-02-08T06:44:36;101023.00;;;-3.91;78.43
37856;BME280;23694;43.274;26.924;2023-02-08T06:47:03;101030.00;;;-3.86;78.04
37856;BME280;23694;43.274;26.924;2023-02-08T06:49:29;101029.97;;;-3.87;79.04
37856;BME280;23694;43.274;26.924;2023-02-08T06:51:55;101025.25;;;-4.05;79.54
37856;BME280;23694;43.274;26.924;2023-02-08T06:54:21;101030.31;;;-4.06;80.38
37856;BME280;23694;43.274;26.924;2023-02-08T06:56:47;101032.06;;;-4.05;80.63
37856;BME280;23694;43.274;26.924;2023-02-08T06:59:13;101033.00;;;-4.02;81.28
37856;BME280;23694;43.274;26.924;2023-02-08T07:01:39;101035.16;;;-3.84;80.74
37856;BME280;23694;43.274;26.924;2023-02-08T07:04:06;101034.56;;;-3.72;81.12
37856;BME280;23694;43.274;26.924;2023-02-08T07:06:34;101034.84;;;-3.60;79.78
37856;BME280;23694;43.274;26.924;2023-02-08T07:09:00;101031.50;;;-3.56;79.77
37856;BME280;23694;43.274;26.924;2023-02-08T07:11:28;101031.44;;;-3.59;80.56
37856;BME280;23694;43.274;26.924;2023-02-08T07:13:54;101035.13;;;-3.46;81.77
37856;BME280;23694;43.274;26.924;2023-02-08T07:16:20;101043.75;;;-3.43;80.51
37856;BME280;23694;43.274;26.924;2023-02-08T07:18:46;101032.75;;;-3.37;80.61
37856;BME280;23694;43.274;26.924;2023-02-08T07:21:13;101031.03;;;-3.38;79.08
37856;BME280;23694;43.274;26.924;2023-02-08T07:23:40;101039.38;;;-3.47;80.83
37856;BME280;23694;43.274;26.924;2023-02-08T07:26:09;101030.38;;;-3.28;79.07
37856;BME280;23694;43.274;26.924;2023-02-08T07:28:37;101037.59;;;-3.12;78.89
37856;BME280;23694;43.274;26.924;2023-02-08T07:31:11;101033.69;;;-3.34;79.37
37856;BME280;23694;43.274;26.924;2023-02-08T07:33:39;101039.59;;;-3.38;80.14
37856;BME280;23694;43.274;26.924;2023-02-08T07:36:06;101044.84;;;-3.32;80.49
37856;BME280;23694;43.274;26.924;2023-02-08T07:38:34;101044.94;;;-3.27;79.07
37856;BME280;23694;43.274;26.924;2023-02-08T07:41:05;101055.69;;;-3.43;79.96
37856;BME280;23694;43.274;26.924;2023-02-08T07:43:36;101065.41;;;-3.68;80.98
37856;BME280;23694;43.274;26.924;2023-02-08T07:46:12;101073.31;;;-3.57;81.33
37856;BME280;23694;43.274;26.924;2023-02-08T07:48:39;101068.94;;;-3.63;82.30
37856;BME280;23694;43.274;26.924;2023-02-08T07:51:05;101060.72;;;-3.48;80.46
37856;BME280;23694;43.274;26.924;2023-02-08T07:53:32;101055.34;;;-3.59;80.77
37856;BME280;23694;43.274;26.924;2023-02-08T07:55:58;101059.03;;;-3.47;79.31
37856;BME280;23694;43.274;26.924;2023-02-08T07:58:25;101057.22;;;-3.52;78.27
37856;BME280;23694;43.274;26.924;2023-02-08T08:00:51;101067.63;;;-3.44;79.90
37856;BME280;23694;43.274;26.924;2023-02-08T08:03:17;101069.28;;;-3.47;79.58
37856;BME280;23694;43.274;26.924;2023-02-08T08:05:43;101072.03;;;-3.38;78.13
37856;BME280;23694;43.274;26.924;2023-02-08T08:08:10;101069.56;;;-3.34;77.53
37856;BME280;23694;43.274;26.924;2023-02-08T08:10:40;101066.38;;;-3.25;78.16
37856;BME280;23694;43.274;26.924;2023-02-08T08:13:06;101061.50;;;-3.13;79.41
37856;BME280;23694;43.274;26.924;2023-02-08T08:15:32;101059.06;;;-3.07;80.07
37856;BME280;23694;43.274;26.924;2023-02-08T08:17:58;101057.19;;;-3.14;80.05
37856;BME280;23694;43.274;26.924;2023-02-08T08:20:24;101068.63;;;-2.98;80.73
37856;BME280;23694;43.274;26.924;2023-02-08T08:22:50;101067.59;;;-2.63;79.84
37856;BME280;23694;43.274;26.924;2023-02-08T08:25:17;101067.91;;;-2.49;77.73
37856;BME280;23694;43.274;26.924;2023-02-08T08:27:43;101066.59;;;-2.71;77.68
37856;BME280;23694;43.274;26.924;2023-02-08T08:30:11;101064.16;;;-2.65;77.21
37856;BME280;23694;43.274;26.924;2023-02-08T08:32:38;101065.53;;;-2.82;76.53
37856;BME280;23694;43.274;26.924;2023-02-08T08:35:06;101078.69;;;-2.65;76.50
37856;BME280;23694;43.274;26.924;2023-02-08T08:37:32;101081.19;;;-2.68;77.28
37856;BME280;23694;43.274;26.924;2023-02-08T08:39:59;101077.00;;;-2.63;75.59
37856;BME280;23694;43.274;26.924;2023-02-08T08:42:25;101075.59;;;-2.93;75.73
37856;BME280;23694;43.274;26.924;2023-02-08T08:44:52;101076.69;;;-2.80;76.47
37856;BME280;23694;43.274;26.924;2023-02-08T08:47:18;101074.44;;;-2.63;75.58
37856;BME280;23694;43.274;26.924;2023-02-08T08:49:45;101074.41;;;-2.65;74.73
37856;BME280;23694;43.274;26.924;2023-02-08T08:52:11;101072.44;;;-2.78;75.69
37856;BME280;23694;43.274;26.924;2023-02-08T08:54:38;101081.59;;;-2.91;75.93
37856;BME280;23694;43.274;26.924;2023-02-08T08:57:04;101079.63;;;-3.04;76.26
37856;BME280;23694;43.274;26.924;2023-02-08T08:59:31;101083.16;;;-2.99;77.10
37856;BME280;23694;43.274;26.924;2023-02-08T09:01:57;101078.72;;;-3.06;76.73
37856;BME280;23694;43.274;26.924;2023-02-08T09:04:23;101084.59;;;-3.11;76.89
37856;BME280;23694;43.274;26.924;2023-02-08T09:06:50;101083.25;;;-2.94;76.69
37856;BME280;23694;43.274;26.924;2023-02-08T09:09:17;101082.53;;;-2.87;76.73
37856;BME280;23694;43.274;26.924;2023-02-08T09:11:43;101083.72;;;-2.70;74.92
37856;BME280;23694;43.274;26.924;2023-02-08T09:14:10;101087.94;;;-2.73;74.17
37856;BME280;23694;43.274;26.924;2023-02-08T09:16:36;101085.75;;;-2.55;74.22
37856;BME280;23694;43.274;26.924;2023-02-08T09:19:04;101081.84;;;-2.35;73.27
37856;BME280;23694;43.274;26.924;2023-02-08T09:21:31;101073.75;;;-2.56;73.84
37856;BME280;23694;43.274;26.924;2023-02-08T09:23:57;101082.44;;;-2.48;74.74
37856;BME280;23694;43.274;26.924;2023-02-08T09:26:23;101079.88;;;-2.48;74.87
37856;BME280;23694;43.274;26.924;2023-02-08T09:28:51;101085.13;;;-2.42;74.61
37856;BME280;23694;43.274;26.924;2023-02-08T09:33:46;101083.88;;;-2.62;75.88
37856;BME280;23694;43.274;26.924;2023-02-08T09:36:13;101085.91;;;-2.46;76.11
37856;BME280;23694;43.274;26.924;2023-02-08T09:38:40;101079.38;;;-2.74;76.11
37856;BME280;23694;43.274;26.924;2023-02-08T09:46:28;101079.47;;;-2.68;78.33
37856;BME280;23694;43.274;26.924;2023-02-08T09:48:59;101081.44;;;-2.56;79.89
37856;BME280;23694;43.274;26.924;2023-02-08T09:51:55;101083.03;;;-2.61;78.12
37856;BME280;23694;43.274;26.924;2023-02-08T09:54:29;101074.00;;;-2.42;77.35
37856;BME280;23694;43.274;26.924;2023-02-08T09:56:58;101067.84;;;-2.52;76.75
37856;BME280;23694;43.274;26.924;2023-02-08T09:59:28;101075.03;;;-2.76;77.40
37856;BME280;23694;43.274;26.924;2023-02-08T10:02:17;101080.25;;;-2.72;78.49
37856;BME280;23694;43.274;26.924;2023-02-08T10:05:11;101084.97;;;-2.51;77.45
37856;BME280;23694;43.274;26.924;2023-02-08T10:07:39;101083.00;;;-2.63;77.05
37856;BME280;23694;43.274;26.924;2023-02-08T10:10:42;101079.56;;;-2.63;76.89
37856;BME280;23694;43.274;26.924;2023-02-08T10:16:21;101089.31;;;-2.89;77.56
37856;BME280;23694;43.274;26.924;2023-02-08T10:27:27;101086.56;;;-2.58;75.37
37856;BME280;23694;43.274;26.924;2023-02-08T10:35:24;101093.94;;;-2.71;73.34
37856;BME280;23694;43.274;26.924;2023-02-08T10:37:51;101086.94;;;-2.80;73.22
37856;BME280;23694;43.274;26.924;2023-02-08T10:43:33;101085.72;;;-2.57;72.59
37856;BME280;23694;43.274;26.924;2023-02-08T10:49:05;101094.38;;;-2.94;74.62
37856;BME280;23694;43.274;26.924;2023-02-08T10:51:34;101087.38;;;-3.01;74.43
37856;BME280;23694;43.274;26.924;2023-02-08T10:54:00;101096.69;;;-3.06;75.69
37856;BME280;23694;43.274;26.924;2023-02-08T10:57:00;101105.19;;;-3.07;77.17
37856;BME280;23694;43.274;26.924;2023-02-08T11:00:04;101090.72;;;-3.05;77.74
37856;BME280;23694;43.274;26.924;2023-02-08T11:02:38;101106.63;;;-3.20;77.37
37856;BME280;23694;43.274;26.924;2023-02-08T11:05:16;101089.63;;;-3.16;78.58
37856;BME280;23694;43.274;26.924;2023-02-08T11:07:42;101095.00;;;-3.04;77.90
37856;BME280;23694;43.274;26.924;2023-02-08T11:13:06;101111.84;;;-3.16;78.48
37856;BME280;23694;43.274;26.924;2023-02-08T11:15:55;101114.25;;;-3.23;77.77
37856;BME280;23694;43.274;26.924;2023-02-08T11:18:26;101108.41;;;-3.17;77.91
37856;BME280;23694;43.274;26.924;2023-02-08T11:20:58;101109.09;;;-3.24;78.81
37856;BME280;23694;43.274;26.924;2023-02-08T11:23:28;101116.00;;;-3.22;78.10
37856;BME280;23694;43.274;26.924;2023-02-08T11:28:42;101107.00;;;-3.03;77.21
37856;BME280;23694;43.274;26.924;2023-02-08T11:31:18;101117.19;;;-3.06;78.58
37856;BME280;23694;43.274;26.924;2023-02-08T11:36:23;101125.00;;;-3.00;76.10
37856;BME280;23694;43.274;26.924;2023-02-08T11:38:49;101118.81;;;-3.09;75.37
37856;BME280;23694;43.274;26.924;2023-02-08T11:41:18;101108.59;;;-3.08;75.68
37856;BME280;23694;43.274;26.924;2023-02-08T11:46:27;101118.59;;;-3.20;76.29
37856;BME280;23694;43.274;26.924;2023-02-08T11:48:55;101118.75;;;-3.12;76.05
37856;BME280;23694;43.274;26.924;2023-02-08T11:51:31;101117.13;;;-3.09;76.62
37856;BME280;23694;43.274;26.924;2023-02-08T11:54:00;101123.66;;;-3.23;77.63
37856;BME280;23694;43.274;26.924;2023-02-08T11:56:28;101118.31;;;-3.31;79.21
37856;BME280;23694;43.274;26.924;2023-02-08T11:59:04;101115.22;;;-3.17;78.83
37856;BME280;23694;43.274;26.924;2023-02-08T12:01:36;101118.56;;;-3.22;79.14
37856;BME280;23694;43.274;26.924;2023-02-08T12:04:09;101122.78;;;-3.24;80.12
37856;BME280;23694;43.274;26.924;2023-02-08T12:20:41;101119.38;;;-3.23;79.91
37856;BME280;23694;43.274;26.924;2023-02-08T12:26:00;101111.69;;;-3.23;81.86
37856;BME280;23694;43.274;26.924;2023-02-08T12:34:09;101127.25;;;-3.15;83.21
37856;BME280;23694;43.274;26.924;2023-02-08T12:37:06;101135.47;;;-3.28;83.09
37856;BME280;23694;43.274;26.924;2023-02-08T12:40:11;101149.72;;;-3.39;82.01
37856;BME280;23694;43.274;26.924;2023-02-08T12:43:07;101122.13;;;-3.51;81.27
37856;BME280;23694;43.274;26.924;2023-02-08T12:45:57;101134.56;;;-3.30;80.52
37856;BME280;23694;43.274;26.924;2023-02-08T12:48:29;101145.94;;;-3.19;78.45
37856;BME280;23694;43.274;26.924;2023-02-08T12:51:15;101139.63;;;-3.33;79.30
37856;BME280;23694;43.274;26.924;2023-02-08T12:53:49;101136.44;;;-3.25;80.26
37856;BME280;23694;43.274;26.924;2023-02-08T12:56:24;101139.25;;;-3.12;80.62
37856;BME280;23694;43.274;26.924;2023-02-08T12:58:55;101141.97;;;-3.06;79.86
37856;BME280;23694;43.274;26.924;2023-02-08T13:01:28;101135.03;;;-3.10;78.48
37856;BME280;23694;43.274;26.924;2023-02-08T13:04:13;101132.38;;;-3.15;78.78
37856;BME280;23694;43.274;26.924;2023-02-08T13:06:43;101148.75;;;-3.08;79.35
37856;BME280;23694;43.274;26.924;2023-02-08T13:12:15;101129.47;;;-2.91;79.66
37856;BME280;23694;43.274;26.924;2023-02-08T13:14:51;101125.84;;;-3.01;79.25
37856;BME280;23694;43.274;26.924;2023-02-08T13:20:40;101120.28;;;-3.21;79.30
37856;BME280;23694;43.274;26.924;2023-02-08T13:22:47;101120.97;;;-3.26;79.32
37856;BME280;23694;43.274;26.924;2023-02-08T13:25:37;101120.31;;;-3.19;78.69
37856;BME280;23694;43.274;26.924;2023-02-08T13:28:06;101127.81;;;-3.27;78.76
37856;BME280;23694;43.274;26.924;2023-02-08T13:30:37;101135.25;;;-3.37;79.16
37856;BME280;23694;43.274;26.924;2023-02-08T13:33:16;101137.84;;;-3.36;80.25
37856;BME280;23694;43.274;26.924;2023-02-08T13:35:48;101132.78;;;-3.33;79.41
37856;BME280;23694;43.274;26.924;2023-02-08T13:38:27;101136.28;;;-3.29;79.57
37856;BME280;23694;43.274;26.924;2023-02-08T13:43:37;101146.88;;;-3.15;78.50
37856;BME280;23694;43.274;26.924;2023-02-08T13:46:05;101147.97;;;-3.04;78.47
37856;BME280;23694;43.274;26.924;2023-02-08T13:49:04;101154.50;;;-3.18;79.30
37856;BME280;23694;43.274;26.924;2023-02-08T13:56:46;101160.66;;;-3.10;78.96
37856;BME280;23694;43.274;26.924;2023-02-08T13:59:36;101171.88;;;-3.05;79.53
37856;BME280;23694;43.274;26.924;2023-02-08T14:04:44;101172.06;;;-2.98;78.75
37856;BME280;23694;43.274;26.924;2023-02-08T14:07:22;101165.81;;;-3.09;78.95
37856;BME280;23694;43.274;26.924;2023-02-08T14:10:18;101166.53;;;-3.16;80.59
37856;BME280;23694;43.274;26.924;2023-02-08T14:17:42;101167.09;;;-3.28;81.18
37856;BME280;23694;43.274;26.924;2023-02-08T14:20:19;101173.63;;;-3.40;82.33
37856;BME280;23694;43.274;26.924;2023-02-08T14:22:54;101169.91;;;-3.53;82.83
37856;BME280;23694;43.274;26.924;2023-02-08T14:25:26;101170.13;;;-3.44;83.02
37856;BME280;23694;43.274;26.924;2023-02-08T14:27:56;101168.31;;;-3.48;82.64
37856;BME280;23694;43.274;26.924;2023-02-08T14:30:31;101176.06;;;-3.45;83.64
37856;BME280;23694;43.274;26.924;2023-02-08T14:33:09;101177.41;;;-3.61;84.05
37856;BME280;23694;43.274;26.924;2023-02-08T14:35:42;101171.91;;;-3.40;84.04
37856;BME280;23694;43.274;26.924;2023-02-08T14:45:48;101180.09;;;-3.20;81.91
37856;BME280;23694;43.274;26.924;2023-02-08T14:48:36;101191.19;;;-3.21;81.56
37856;BME280;23694;43.274;26.924;2023-02-08T14:54:01;101195.44;;;-3.22;80.68
37856;BME280;23694;43.274;26.924;2023-02-08T14:56:34;101187.16;;;-3.46;81.41
37856;BME280;23694;43.274;26.924;2023-02-08T14:59:12;101191.59;;;-3.39;81.15
37856;BME280;23694;43.274;26.924;2023-02-08T15:04:12;101196.78;;;-3.36;81.36
37856;BME280;23694;43.274;26.924;2023-02-08T15:09:35;101206.09;;;-3.39;81.41
37856;BME280;23694;43.274;26.924;2023-02-08T15:12:08;101204.25;;;-3.45;81.25
37856;BME280;23694;43.274;26.924;2023-02-08T15:14:39;101206.78;;;-3.46;81.18
37856;BME280;23694;43.274;26.924;2023-02-08T15:17:18;101203.09;;;-3.58;81.39
37856;BME280;23694;43.274;26.924;2023-02-08T15:19:45;101211.66;;;-3.57;81.04
37856;BME280;23694;43.274;26.924;2023-02-08T15:22:37;101207.34;;;-3.58;80.38
37856;BME280;23694;43.274;26.924;2023-02-08T15:27:48;101222.44;;;-3.69;81.40
37856;BME280;23694;43.274;26.924;2023-02-08T15:30:44;101233.00;;;-3.57;81.27